createdAt,value
2018-10-06T00:00:52.997Z,81.47
2018-10-06T00:04:58.070Z,81.72
2018-10-06T00:09:03.192Z,81.92
2018-10-06T00:13:08.238Z,81.49
2018-10-06T00:17:13.265Z,82.29
2018-10-06T00:21:18.334Z,82.64
2018-10-06T00:25:23.401Z,82.66
2018-10-06T00:29:28.470Z,82.66
2018-10-06T00:33:33.537Z,82.26
2018-10-06T00:37:38.597Z,82.54
2018-10-06T00:41:43.665Z,82.81
2018-10-06T00:45:48.749Z,83.72
2018-10-06T00:49:53.805Z,83.08
2018-10-06T00:53:58.893Z,82.81
2018-10-06T00:58:03.956Z,82.53
2018-10-06T01:02:09.089Z,82.63
2018-10-06T01:06:14.158Z,83.04
2018-10-06T01:10:19.187Z,82.81
2018-10-06T01:14:24.230Z,82.52
2018-10-06T01:18:29.278Z,82.42
2018-10-06T01:22:34.328Z,82.63
2018-10-06T01:26:39.410Z,83.20
2018-10-06T01:30:44.769Z,83.89
2018-10-06T01:34:49.848Z,83.71
2018-10-06T01:38:54.905Z,83.58
2018-10-06T01:43:00.046Z,84.44
2018-10-06T01:47:11.762Z,84.96
2018-10-06T01:51:16.787Z,84.83
2018-10-06T01:55:21.832Z,84.80
2018-10-06T01:59:26.889Z,84.82
2018-10-06T02:03:31.933Z,85.17
2018-10-06T02:07:36.980Z,85.09
2018-10-06T02:11:42.017Z,85.25
2018-10-06T02:15:47.265Z,84.16
2018-10-06T02:19:52.937Z,84.83
2018-10-06T02:23:57.977Z,85.19
2018-10-06T02:28:03.103Z,85.38
2018-10-06T02:32:08.130Z,86.09
2018-10-06T02:36:13.189Z,86.29
2018-10-06T02:40:18.248Z,86.19
2018-10-06T02:44:23.284Z,86.25
2018-10-06T02:48:28.377Z,87.04
2018-10-06T02:52:33.397Z,87.23
2018-10-06T02:56:38.420Z,86.08
2018-10-06T03:00:43.465Z,85.99
2018-10-06T03:04:48.522Z,85.72
2018-10-06T03:08:53.584Z,85.93
2018-10-06T03:12:58.591Z,85.51
2018-10-06T03:17:03.656Z,85.79
2018-10-06T03:21:08.681Z,85.39
2018-10-06T03:25:13.735Z,85.35
2018-10-06T03:29:18.784Z,85.63
2018-10-06T03:33:23.849Z,86.44
2018-10-06T03:37:28.877Z,85.92
2018-10-06T03:41:33.921Z,86.57
2018-10-06T03:45:39.193Z,86.49
2018-10-06T03:49:44.221Z,86.61
2018-10-06T03:53:49.270Z,86.04
2018-10-06T03:57:54.302Z,86.97
2018-10-06T04:01:59.327Z,87.18
2018-10-06T04:06:04.481Z,87.24
2018-10-06T04:10:09.517Z,87.68
2018-10-06T04:14:14.588Z,87.46
2018-10-06T04:18:19.644Z,88.50
2018-10-06T04:22:24.685Z,88.71
2018-10-06T04:26:29.717Z,88.60
2018-10-06T04:30:34.798Z,88.86
2018-10-06T04:34:39.819Z,88.81
2018-10-06T04:38:44.820Z,88.26
2018-10-06T04:42:49.856Z,88.93
2018-10-06T04:47:01.701Z,88.45
2018-10-06T04:51:06.753Z,87.89
2018-10-06T04:55:11.771Z,88.03
2018-10-06T04:59:16.793Z,88.69
2018-10-06T05:03:21.859Z,88.90
2018-10-06T05:07:26.797Z,88.82
2018-10-06T05:11:31.808Z,89.45
2018-10-06T05:15:36.820Z,89.17
2018-10-06T05:19:41.849Z,89.09
2018-10-06T05:23:46.904Z,89.23
2018-10-06T05:27:51.970Z,89.07
2018-10-06T05:31:56.998Z,89.04
2018-10-06T05:36:02.013Z,89.10
2018-10-06T05:40:07.124Z,89.64
2018-10-06T05:44:12.141Z,88.93
2018-10-06T05:48:17.193Z,88.99
2018-10-06T05:52:22.226Z,88.77
2018-10-06T05:56:27.268Z,89.01
2018-10-06T06:00:32.339Z,88.04
2018-10-06T06:04:37.381Z,88.43
2018-10-06T06:08:42.431Z,89.00
2018-10-06T06:12:47.470Z,88.43
2018-10-06T06:16:52.517Z,88.22
2018-10-06T06:20:57.640Z,87.71
2018-10-06T06:25:02.680Z,88.40
2018-10-06T06:29:07.705Z,88.00
2018-10-06T06:33:12.758Z,87.93
2018-10-06T06:37:17.792Z,88.01
2018-10-06T06:41:22.818Z,88.17
2018-10-06T06:45:27.841Z,87.17
2018-10-06T06:49:32.866Z,86.73
2018-10-06T06:53:37.940Z,86.46
2018-10-06T06:57:43.036Z,86.34
2018-10-06T07:01:48.050Z,86.30
2018-10-06T07:05:53.152Z,86.16
2018-10-06T07:09:58.131Z,86.22
2018-10-06T07:14:03.157Z,85.90
2018-10-06T07:18:08.221Z,84.16
2018-10-06T07:22:13.277Z,84.32
2018-10-06T07:26:18.356Z,82.94
2018-10-06T07:30:23.384Z,81.56
2018-10-06T07:34:28.462Z,81.06
2018-10-06T07:38:33.495Z,80.93
2018-10-06T07:42:38.509Z,79.40
2018-10-06T07:46:43.529Z,77.79
2018-10-06T07:50:48.672Z,77.45
2018-10-06T07:54:53.725Z,75.76
2018-10-06T07:58:58.820Z,74.91
2018-10-06T08:03:03.868Z,73.35
2018-10-06T08:07:09.525Z,72.45
2018-10-06T08:11:14.567Z,71.35
2018-10-06T08:15:19.626Z,67.85
2018-10-06T08:19:24.788Z,67.62
2018-10-06T08:23:30.029Z,64.80
2018-10-06T08:27:35.078Z,65.34
2018-10-06T08:31:40.133Z,61.95
2018-10-06T08:35:46.468Z,61.88
2018-10-06T08:39:51.530Z,60.58
2018-10-06T08:43:56.745Z,60.35
2018-10-06T08:48:01.898Z,60.85
2018-10-06T08:52:07.074Z,59.81
2018-10-06T08:56:12.238Z,58.56
2018-10-06T09:00:17.233Z,60.14
2018-10-06T09:04:22.322Z,59.88
2018-10-06T09:08:27.401Z,59.46
2018-10-06T09:12:32.454Z,60.33
2018-10-06T09:16:37.564Z,59.51
2018-10-06T09:20:42.641Z,60.38
2018-10-06T09:24:47.720Z,60.30
2018-10-06T09:28:52.785Z,60.01
2018-10-06T09:32:57.812Z,60.46
2018-10-06T09:37:03.027Z,60.42
2018-10-06T09:41:09.196Z,60.00
2018-10-06T09:45:18.735Z,60.74
2018-10-06T09:49:24.848Z,60.17
2018-10-06T09:53:30.014Z,60.36
2018-10-06T09:57:35.076Z,59.93
2018-10-06T10:01:45.466Z,59.43
2018-10-06T10:05:52.408Z,58.82
2018-10-06T10:09:57.472Z,58.22
2018-10-06T10:14:02.471Z,57.73
2018-10-06T10:18:07.687Z,56.70
2018-10-06T10:22:12.831Z,55.94
2018-10-06T10:26:17.682Z,55.09
2018-10-06T10:30:22.731Z,55.58
2018-10-06T10:34:27.824Z,54.77
2018-10-06T10:38:32.861Z,53.93
2018-10-06T10:42:37.941Z,52.99
2018-10-06T10:46:43.006Z,52.83
2018-10-06T10:50:48.969Z,52.77
2018-10-06T10:54:54.064Z,51.31
2018-10-06T10:58:59.136Z,51.27
2018-10-06T11:03:04.214Z,50.69
2018-10-06T11:07:10.402Z,50.39
2018-10-06T11:11:15.544Z,48.83
2018-10-06T11:15:20.565Z,49.21
2018-10-06T11:23:29.702Z,48.61
2018-10-06T11:27:34.784Z,47.63
2018-10-06T11:31:39.865Z,48.49
2018-10-06T11:35:45.039Z,47.24
2018-10-06T11:39:50.120Z,45.37
2018-10-06T11:43:55.218Z,45.98
2018-10-06T11:48:00.336Z,44.96
2018-10-06T11:52:05.420Z,44.46
2018-10-06T11:56:10.549Z,45.76
2018-10-06T12:00:15.856Z,46.38
2018-10-06T12:04:20.789Z,44.88
2018-10-06T12:08:25.836Z,45.36
2018-10-06T12:12:30.904Z,45.21
2018-10-06T12:16:36.052Z,45.77
2018-10-06T12:20:41.222Z,45.78
2018-10-06T12:24:46.173Z,45.52
2018-10-06T12:28:51.234Z,45.19
2018-10-06T12:32:56.309Z,45.40
2018-10-06T12:37:01.361Z,47.73
2018-10-06T12:41:06.492Z,46.48
2018-10-06T12:45:11.753Z,47.70
2018-10-06T12:49:16.914Z,46.22
2018-10-06T12:53:22.004Z,45.80
2018-10-06T12:57:27.059Z,44.70
2018-10-06T13:01:32.139Z,43.06
2018-10-06T13:05:37.197Z,44.32
2018-10-06T13:09:42.328Z,43.33
2018-10-06T13:13:47.408Z,42.09
2018-10-06T13:17:52.485Z,40.08
2018-10-06T13:21:57.533Z,40.01
2018-10-06T13:26:02.569Z,41.02
2018-10-06T13:30:07.613Z,40.53
2018-10-06T13:34:12.700Z,40.20
2018-10-06T13:38:17.736Z,40.86
2018-10-06T13:42:22.846Z,39.60
2018-10-06T13:46:27.901Z,38.84
2018-10-06T13:50:32.953Z,39.65
2018-10-06T13:54:38.243Z,39.93
2018-10-06T13:58:43.354Z,40.28
2018-10-06T14:02:48.358Z,41.00
2018-10-06T14:06:53.437Z,41.32
2018-10-06T14:10:58.521Z,42.53
2018-10-06T14:15:03.574Z,42.71
2018-10-06T14:19:08.642Z,44.15
2018-10-06T14:23:13.704Z,44.70
2018-10-06T14:27:18.802Z,45.41
2018-10-06T14:31:23.863Z,46.07
2018-10-06T14:35:28.922Z,45.57
2018-10-06T14:39:33.985Z,46.27
2018-10-06T14:43:39.053Z,47.28
2018-10-06T14:47:44.224Z,46.92
2018-10-06T14:51:49.240Z,47.35
2018-10-06T14:55:54.673Z,47.65
2018-10-06T15:00:00.425Z,48.31
2018-10-06T15:04:05.481Z,47.82
2018-10-06T15:08:10.535Z,47.91
2018-10-06T15:12:15.658Z,48.53
2018-10-06T15:16:20.825Z,48.89
2018-10-06T15:20:26.270Z,49.18
2018-10-06T15:24:31.345Z,49.64
2018-10-06T15:28:36.523Z,49.70
2018-10-06T15:32:41.613Z,49.87
2018-10-06T15:36:46.744Z,49.04
2018-10-06T15:40:51.706Z,49.44
2018-10-06T15:44:56.824Z,50.42
2018-10-06T15:49:01.870Z,49.74
2018-10-06T15:53:06.929Z,50.50
2018-10-06T15:57:12.036Z,50.70
2018-10-06T16:01:17.084Z,50.35
2018-10-06T16:05:22.132Z,50.43
2018-10-06T16:09:27.186Z,51.01
2018-10-06T16:13:32.231Z,51.45
2018-10-06T16:17:37.277Z,51.38
2018-10-06T16:21:42.434Z,52.09
2018-10-06T16:25:47.453Z,51.52
2018-10-06T16:29:52.496Z,52.33
2018-10-06T16:33:57.549Z,52.63
2018-10-06T16:38:02.609Z,51.95
2018-10-06T16:42:07.725Z,52.45
2018-10-06T16:46:12.788Z,53.44
2018-10-06T16:50:17.853Z,53.34
2018-10-06T16:54:22.860Z,53.47
2018-10-06T16:58:28.295Z,53.78
2018-10-06T17:02:33.353Z,53.37
2018-10-06T17:06:38.482Z,54.32
2018-10-06T17:10:43.495Z,54.40
2018-10-06T17:14:48.641Z,55.21
2018-10-06T17:18:53.789Z,54.18
2018-10-06T17:22:58.861Z,55.50
2018-10-06T17:27:03.912Z,54.66
2018-10-06T17:31:08.968Z,55.41
2018-10-06T17:35:14.012Z,55.27
2018-10-06T17:39:19.058Z,55.26
2018-10-06T17:43:24.116Z,55.05
2018-10-06T17:47:29.198Z,55.57
2018-10-06T17:51:34.243Z,55.95
2018-10-06T17:55:39.301Z,55.68
2018-10-06T17:59:44.397Z,56.27
2018-10-06T18:03:49.520Z,56.84
2018-10-06T18:07:54.598Z,55.99
2018-10-06T18:11:59.658Z,56.94
2018-10-06T18:16:04.706Z,56.22
2018-10-06T18:20:09.799Z,56.63
2018-10-06T18:24:14.817Z,56.11
2018-10-06T18:28:19.869Z,56.99
2018-10-06T18:32:24.910Z,56.84
2018-10-06T18:36:30.082Z,57.13
2018-10-06T18:40:35.069Z,56.96
2018-10-06T18:44:40.257Z,57.39
2018-10-06T18:48:45.302Z,56.85
2018-10-06T18:52:50.333Z,56.75
2018-10-06T18:56:55.406Z,57.60
2018-10-06T19:01:00.424Z,56.77
2018-10-06T19:05:05.605Z,57.55
2018-10-06T19:09:10.789Z,57.65
2018-10-06T19:13:15.834Z,57.75
2018-10-06T19:17:20.915Z,57.12
2018-10-06T19:21:25.942Z,57.96
2018-10-06T19:25:31.029Z,58.10
2018-10-06T19:29:36.049Z,57.22
2018-10-06T19:33:41.144Z,57.47
2018-10-06T19:37:46.140Z,58.00
2018-10-06T19:41:51.178Z,58.41
2018-10-06T19:45:56.229Z,58.92
2018-10-06T19:50:01.317Z,58.93
2018-10-06T19:54:06.385Z,58.99
2018-10-06T19:58:11.425Z,59.13
2018-10-06T20:02:16.453Z,59.54
2018-10-06T20:06:21.590Z,59.41
2018-10-06T20:10:26.640Z,60.18
2018-10-06T20:14:31.675Z,61.32
2018-10-06T20:18:36.825Z,63.02
2018-10-06T20:22:41.923Z,64.41
2018-10-06T20:26:47.005Z,64.74
2018-10-06T20:30:52.098Z,62.33
2018-10-06T20:34:57.207Z,61.74
2018-10-06T20:39:02.261Z,62.38
2018-10-06T20:43:07.331Z,62.39
2018-10-06T20:47:12.406Z,62.23
2018-10-06T20:51:17.485Z,63.12
2018-10-06T20:55:22.613Z,65.94
2018-10-06T20:59:27.681Z,66.88
2018-10-06T21:03:32.773Z,67.33
2018-10-06T21:07:37.849Z,67.76
2018-10-06T21:11:43.109Z,68.61
2018-10-06T21:15:48.238Z,68.08
2018-10-06T21:19:53.349Z,67.68
2018-10-06T21:23:58.402Z,67.51
2018-10-06T21:28:03.473Z,68.01
2018-10-06T21:32:08.719Z,68.42
2018-10-06T21:36:13.767Z,68.43
2018-10-06T21:40:19.078Z,69.57
2018-10-06T21:44:24.149Z,69.02
2018-10-06T21:48:29.208Z,69.14
2018-10-06T21:52:34.228Z,69.55
2018-10-06T21:56:39.300Z,69.55
2018-10-06T22:00:44.389Z,69.13
2018-10-06T22:04:49.450Z,69.78
2018-10-06T22:08:55.249Z,70.10
2018-10-06T22:13:00.276Z,70.04
2018-10-06T22:17:05.357Z,70.30
2018-10-06T22:21:10.452Z,70.12
2018-10-06T22:25:15.525Z,70.94
2018-10-06T22:29:20.683Z,71.23
2018-10-06T22:33:25.677Z,71.54
2018-10-06T22:37:30.757Z,71.72
2018-10-06T22:41:35.778Z,72.74
2018-10-06T22:45:40.824Z,71.57
2018-10-06T22:49:45.848Z,72.42
2018-10-06T22:53:50.898Z,71.86
2018-10-06T22:57:55.995Z,72.36
2018-10-06T23:02:00.988Z,72.99
2018-10-06T23:06:06.986Z,73.20
2018-10-06T23:10:12.036Z,72.24
2018-10-06T23:14:17.041Z,73.42
2018-10-06T23:18:22.085Z,73.55
2018-10-06T23:22:27.168Z,73.79
2018-10-06T23:26:32.221Z,73.71
2018-10-06T23:30:37.281Z,73.96
2018-10-06T23:34:42.317Z,73.52
2018-10-06T23:38:47.358Z,74.19
2018-10-06T23:42:52.426Z,73.85
2018-10-06T23:46:57.470Z,74.42
2018-10-06T23:51:02.518Z,75.10
2018-10-06T23:55:07.585Z,74.60
2018-10-06T23:59:12.602Z,74.76
